Tiempo atmosférico en la estación meteorológica de Sa Pobla, Illes Balears (40 m.)



Fecha
DESCASC
Temp. máxima en grados centígrados (hora)
DESCASC
Temp. mínima en grados centígrados (hora)
DESCASC
Temp. media en grados centígrados
DESCASC
Racha de viento máxima en m/sg (hora)
DESCASC
Velocidad máxima media en intervalos de 10 minutos(hora)
DESCASC
Precipitaciones diarias en mm
DESCASC
Precipitaciones de 00:00 a 06:00 en mm
DESCASC
Precipitaciones de 06:00 a 12:00 en mm
DESCASC
Precipitaciones de 12:00 a 18:00 en mm
DESCASC
Precipitaciones de 18:00 a 24:00 en mm
DESCASC
28-02-2021 16.4 (14:00) 3.9 (04:50) 10.1 8.33 (14:50) 5 (13:40) 0 0 0 0 0
27-02-2021 16.6 (14:10) 2.6 (06:50) 9.6 7.22 (12:20) 4.44 (12:20) 0 0 0 0 0
26-02-2021 15.9 (13:00) 3.8 (03:20) 9.8 6.67 (12:40) 3.89 (18:10) 0 0 0 0 0
25-02-2021 17.8 (13:30) 5.3 (00:00) 11.5 5.83 (17:10) 3.33 (15:00) 0 0 0 0 0
24-02-2021 18.3 (13:20) 6 (00:00) 12.1 10 (13:10) 5 (12:50) 0 0 0 0 0
23-02-2021 17.6 (14:10) 7.5 (00:00) 12.6 7.5 (15:50) 5 (14:00) 0 0 0 0 0
22-02-2021 16.8 (00:40) 8.5 (00:00) 12.6 8.89 (07:10) 4.72 (06:40) 0.2 0 0 0.2 0
21-02-2021 18.4 (12:40) 6.6 (00:00) 12.5 8.61 (12:20) 5.83 (12:20) 0 0 0 0 0
20-02-2021 19.6 (14:10) 3.9 (00:00) 11.8 6.11 (15:00) 4.17 (15:10) 0 0 0 0 0
19-02-2021 17.5 (14:30) 3.2 (00:00) 10.4 6.11 (16:00) 3.61 (16:00) 0 0 0 0 0
18-02-2021 19.9 (15:40) 7.3 (00:00) 13.6 7.22 (15:30) 4.17 (15:00) 0 0 0 0 0
17-02-2021 18.7 (14:50) 2.8 (00:00) 10.8 5.83 (15:30) 3.33 (15:10) 0 0 0 0 0
16-02-2021 15.7 (14:00) 3 (00:00) 9.3 8.33 (16:00) 4.17 (14:30) 0 0 0 0 0
15-02-2021 12.6 (14:10) 3.5 (00:00) 8.1 5.56 (17:10) 3.33 (17:10) 0 0 0 0 0
14-02-2021 12 (00:00) 6.6 (00:00) 9.3 7.5 (14:10) 3.89 (11:10) 0 0 0 0 0
13-02-2021 15.7 (14:00) 9.5 (00:00) 12.6 5.28 (14:10) 3.61 (14:40) 0.2 0.2 0 0 0
12-02-2021 18 (17:00) 6.9 (00:00) 12.5 13.06 (17:30) 6.11 (17:30) 2 0 0 0 2
11-02-2021 20.2 (14:20) 3.8 (00:00) 12 7.5 (12:10) 3.89 (12:00) 0 0 0 0 0
10-02-2021 17.1 (09:40) 7.7 (00:00) 12.4 16.39 (05:10) 8.06 (08:50) 0.8 0 0.6 0.2 0
09-02-2021 17.4 (13:50) 9.2 (00:00) 13.3 16.11 (23:00) 6.67 (23:00) 0.4 0 0 0 0.4
08-02-2021 16.5 (16:50) 6.8 (00:00) 11.7 15.83 (12:40) 7.22 (12:30) 0.6 0 0 0.6 0
07-02-2021 15 (14:50) 5.7 (00:00) 10.3 8.61 (12:40) 4.72 (12:20) 0 0 0 0 0
06-02-2021 21.8 (03:20) 12.1 (00:00) 16.9 11.39 (13:00) 6.11 (13:10) 0 0 0 0 0
05-02-2021 24.2 (15:40) 6.7 (00:00) 15.5 6.94 (14:30) 3.61 (16:00) 0 0 0 0 0
04-02-2021 19.8 (15:00) 9.1 (00:00) 14.4 4.72 (15:30) 3.33 (16:30) 0 0 0 0 0
03-02-2021 19.7 (13:20) 10 (00:00) 14.9 9.17 (08:30) 4.72 (05:00) 0 0 0 0 0
02-02-2021 22.1 (14:30) 9.1 (00:00) 15.6 9.72 (00:40) 3.89 (22:20) 0 0 0 0 0
01-02-2021 19.4 (21:30) 14.7 (00:00) 17 24.44 (15:20) 11.11 (15:00) 0 0 0 0 0
31-01-2021 18.2 (16:00) 12.8 (00:00) 15.5 14.17 (12:20) 5.28 (07:50) 0 0 0 0 0
30-01-2021 19 (14:20) 9.7 (00:00) 14.3 15.28 (11:30) 7.78 (11:40) 0.4 0 0.2 0 0.2

Gráficas

Temp. máximas Temp. mínimas Temp. medias Precipitaciones Rachas de viento máximas Velocidades máximas media en intervalos de 10 minutos

Datos horarios

Fecha y hora oficial Temperatura (ºC) Velocidad del viento (km/h) Dirección del viento Racha (km/h) Dirección de racha Precipitación (mm) Presión (hPa) Tendencia (hPa) Humedad (%)
2021-02-28 23:00:00 12.5 8 Este 16 Nordeste 0 1020.9 -- 78
2021-02-28 22:00:00 12.2 6 Norte 13 Norte 0 1020.8 -- 78
2021-02-28 21:00:00 11.2 4 Norte 8 Norte 0 1020.8 -- 81
2021-02-28 20:00:00 11.6 4 Nordeste 11 Este 0 1020.7 -- 79
2021-02-28 19:00:00 12.4 7 Nordeste 21 Nordeste 0 1020.3 -- 78
2021-02-28 18:00:00 14 14 Nordeste 25 Nordeste 0 1020 -- 73
2021-02-28 17:00:00 14.8 14 Nordeste 26 Nordeste 0 1019.8 -- 70
2021-02-28 16:00:00 15.9 15 Nordeste 27 Nordeste 0 1019.7 -- 65
2021-02-28 15:00:00 16 16 Nordeste 30 Nordeste 0 1020.1 -- 65
2021-02-28 14:00:00 16.2 15 Nordeste 27 Nordeste 0 1020.3 -- 62
2021-02-28 13:00:00 15.4 13 Nordeste 23 Nordeste 0 1020.9 -- 65
2021-02-28 12:00:00 14.5 12 Nordeste 24 Norte 0 1021.5 -- 67
2021-02-28 11:00:00 14.4 11 Nordeste 18 Nordeste 0 1021.2 -- 66
2021-02-28 10:00:00 12.2 4 Nordeste 8 Nordeste 0 1021 -- 80
2021-02-28 09:00:00 7.5 3 Sur 6 Sur 0 1020.8 -- 94
2021-02-28 08:00:00 5.5 4 Sudoeste 9 Sudoeste 0 1020.2 -- 96
2021-02-28 07:00:00 4.2 4 Sudoeste 8 Sudoeste 0 1020 -- 95
2021-02-28 06:00:00 4.3 4 Sudoeste 8 Sur 0 1019.9 -- 95
2021-02-28 05:00:00 4.3 4 Sur 7 Sudoeste 0 1019.9 -- 94
2021-02-28 04:00:00 5.1 5 Sudoeste 10 Sudoeste 0 1020.2 -- 94
2021-02-28 03:00:00 5.2 5 Sudoeste 8 Sur 0 1020.3 -- 94
2021-02-28 02:00:00 5.4 3 Sudoeste 7 Sudoeste 0 1020.4 -- 94
2021-02-28 01:00:00 4.9 3 Sur 5 Sur 0 1020.7 -- 94
2021-02-28 00:00:00 6.1 3 Sudoeste 6 Sudoeste 0 1021 -- 93
2021-02-27 23:00:00 6.8 3 Sur 6 Sur 0 1021.2 -- 91
2021-02-27 22:00:00 7.3 2 Oeste 8 Noroeste 0 1021.2 -- 89
2021-02-27 21:00:00 9.3 6 Noroeste 10 Noroeste 0 1021 -- 83
2021-02-27 20:00:00 10.2 6 Noroeste 12 Nordeste 0 1020.9 -- 80
2021-02-27 19:00:00 12.2 8 Nordeste 21 Nordeste 0 1020.8 -- 71
2021-02-27 18:00:00 13.8 10 Nordeste 22 Nordeste 0 1020.5 -- 65
2021-02-27 17:00:00 15.2 12 Nordeste 21 Nordeste 0 1020.5 -- 61
2021-02-27 16:00:00 15.4 14 Nordeste 24 Nordeste 0 1020.5 -- 57
2021-02-27 15:00:00 16.1 12 Este -- -- -- 1020.9 -- 58
2021-02-27 14:00:00 16.3 13 Este 26 Este 0 1021.4 -- 65
2021-02-27 13:00:00 15.8 15 Nordeste 26 Norte 0 1022.1 -- 67
2021-02-27 12:00:00 16.5 12 Nordeste 23 Nordeste 0 1022.3 -- 67
2021-02-27 11:00:00 15 9 Nordeste 17 Norte 0 1022.6 -- 75
2021-02-27 10:00:00 10.6 4 Sudeste 7 Sudeste 0 1022.8 -- 85
2021-02-27 09:00:00 6.2 4 Sur 10 Sudoeste 0 1022.7 -- 95
2021-02-27 08:00:00 3.4 7 Sudoeste 13 Sudoeste 0 1022.6 -- 96
2021-02-27 07:00:00 2.7 8 Sur 11 Sur 0 1022.4 -- 96
2021-02-27 06:00:00 3 6 Sur 12 Sudoeste 0 1022.7 -- 96
2021-02-27 05:00:00 3.4 5 Sur 10 Sur 0 1022.9 -- 96
2021-02-27 04:00:00 4.1 5 Sudoeste 12 Sudoeste 0 1023 -- 95
2021-02-27 03:00:00 4.3 6 Sudoeste 10 Sudoeste 0 1023.3 -- 95
2021-02-27 02:00:00 5 3 Sudoeste 9 Sudoeste 0 1023.9 -- 95
2021-02-27 01:00:00 5.6 6 Sur 8 Sur 0 1024.2 -- 95
2021-02-27 00:00:00 5.8 5 Sur 8 Sudoeste 0 1024.6 -- 94
2021-02-26 23:00:00 7.1 5 Sudoeste 8 Sudoeste 0 1025.1 -- 93
2021-02-26 22:00:00 7.2 3 Oeste 5 Oeste 0 1024.9 -- 91
2021-02-26 21:00:00 8.8 3 Oeste 10 Norte 0 1024.7 -- 89
2021-02-26 20:00:00 10.2 5 Nordeste 12 Nordeste 0 1024.6 -- 87
2021-02-26 19:00:00 11.3 8 Nordeste 19 Nordeste 0 1024.6 -- 83
2021-02-26 18:00:00 13.3 14 Nordeste 21 Nordeste 0 1024.4 -- 76
2021-02-26 17:00:00 14.5 10 Nordeste 21 Nordeste 0 1024.5 -- 70
2021-02-26 16:00:00 15 10 Nordeste 20 Nordeste 0 1024.6 -- 68
2021-02-26 15:00:00 15.7 11 Este 21 Nordeste 0 1025.1 -- 66
2021-02-26 14:00:00 15.3 11 Nordeste 20 Nordeste 0 1025.7 -- 67
2021-02-26 13:00:00 15.4 10 Nordeste 24 Nordeste 0 1026.7 -- 66
2021-02-26 12:00:00 14.2 9 Nordeste 19 Nordeste 0 1027.2 -- 69
2021-02-26 11:00:00 13 7 Nordeste 15 Nordeste 0 1027.4 -- 74
2021-02-26 10:00:00 12.1 2 Nordeste 8 Este 0 1027.5 -- 82
2021-02-26 09:00:00 8.5 4 Sur 8 Sudoeste 0 1027.2 -- 93
2021-02-26 08:00:00 6.7 5 Sur 8 Sudoeste 0 1026.6 -- 94
2021-02-26 07:00:00 6.2 4 Sur 11 Sudoeste 0 1026.5 -- 95
2021-02-26 06:00:00 5.3 5 Sur 10 Sudoeste 0 1026.4 -- 95
2021-02-26 05:00:00 4.4 7 Sur 11 Sur 0 1026.4 -- 95
2021-02-26 04:00:00 3.8 5 Sur 8 Sur 0 1026.6 -- 95
2021-02-26 03:00:00 4.3 5 Sudoeste 8 Sudoeste 0 1026.8 -- 94
2021-02-26 02:00:00 5.3 5 Sudoeste 8 Sudoeste 0 1027.3 -- 95
2021-02-26 01:00:00 5.9 5 Sudoeste 7 Sur 0 1027.7 -- 95
2021-02-26 00:00:00 6.4 5 Sudoeste 8 Sudoeste 0 1027.7 -- 94
2021-02-25 23:00:00 6.8 4 Sudoeste 6 Sudoeste 0 1027.9 -- 93
2021-02-25 22:00:00 7.2 3 Sudoeste 5 Oeste 0 1027.7 -- 92
2021-02-25 21:00:00 9.2 3 Oeste 5 Oeste 0 1027.3 -- 87
2021-02-25 20:00:00 9.9 0 Calma 6 Norte 0 1026.9 -- 86
2021-02-25 19:00:00 12.1 4 Nordeste 14 Nordeste 0 1026.6 -- 81
2021-02-25 18:00:00 14.4 10 Nordeste 21 Nordeste 0 1026.1 -- 69
2021-02-25 17:00:00 15.7 12 Nordeste 21 Nordeste 0 1026.1 -- 62
2021-02-25 16:00:00 16.6 12 Nordeste 21 Nordeste 0 1026.3 -- 62
2021-02-25 15:00:00 17.2 12 Nordeste 21 Este 0 1026.7 -- 61
2021-02-25 14:00:00 17.6 10 Nordeste 19 Nordeste 0 1027 -- 60
2021-02-25 13:00:00 16.9 6 Nordeste 14 Nordeste 0 1027.8 -- 59
2021-02-25 12:00:00 16 5 Sudeste 12 Sudeste 0 1028.3 -- 61
2021-02-25 11:00:00 15.1 6 Sur 11 Este 0 1028.6 -- 68
2021-02-25 10:00:00 12.3 4 Sur 10 Sur 0 1028.6 -- 83
2021-02-25 09:00:00 8 6 Sur 10 Sur 0 1028.3 -- 94
2021-02-25 08:00:00 5.5 6 Sur 11 Sudoeste 0 1028 -- 95
2021-02-25 07:00:00 5.6 8 Sur 11 Sur 0 1027.7 -- 95
2021-02-25 06:00:00 5.3 5 Sur 10 Sudoeste 0 1027.7 -- 95
2021-02-25 05:00:00 6 7 Sudoeste 10 Sudoeste 0 1027.6 -- 95
2021-02-25 04:00:00 5.9 4 Sur 10 Sur 0 1027.8 -- 95
2021-02-25 03:00:00 7.4 6 Sudoeste 10 Sur 0 1028.3 -- 95
2021-02-25 02:00:00 7.1 6 Sur 9 Sur 0 1029 -- 94
2021-02-25 01:00:00 7.3 4 Sudoeste 7 Sudoeste 0 1029.3 -- 94
2021-02-25 00:00:00 7.4 3 Sur 9 Sudeste 0 1029.3 -- 93
2021-02-24 23:00:00 8 3 Sudoeste 8 Noroeste 0 1029.4 -- 91
2021-02-24 22:00:00 9.1 4 Noroeste 8 Noroeste 0 1029.4 -- 87
2021-02-24 21:00:00 10.6 4 Oeste 8 Noroeste 0 1029.1 -- 84
2021-02-24 20:00:00 11.6 2 Oeste 9 Este 0 1028.9 -- 80
2021-02-24 19:00:00 13.2 9 Este 19 Sudeste 0 1028.7 -- 73
2021-02-24 18:00:00 15.2 13 Este 21 Este 0 1028.5 -- 61
2021-02-24 17:00:00 16.5 15 Este 22 Sudeste 0 1028.5 -- 57
2021-02-24 16:00:00 17.2 12 Sudeste 23 Sur 0 1028.7 -- 51
2021-02-24 15:00:00 17.6 13 Este 23 Sudeste 0 1029.3 -- 51
2021-02-24 14:00:00 18.1 12 Sudeste 36 Este 0 1030.2 -- 46
2021-02-24 13:00:00 17.7 16 Este 30 Sudeste 0 1030.9 -- 46
2021-02-24 12:00:00 17.2 6 Sudeste 16 Este 0 1031.5 -- 60
2021-02-24 11:00:00 15.6 3 Sur 11 Este 0 1032 -- 67
2021-02-24 10:00:00 15.9 2 Sur 9 Este 0 1032.1 -- 71
2021-02-24 09:00:00 9.5 2 Sudeste 6 Oeste 0 1031.9 -- 93
2021-02-24 08:00:00 6.3 4 Sudoeste 8 Sudoeste 0 1031.6 -- 96
2021-02-24 07:00:00 6.2 3 Sur 7 Sur 0 1031.5 0.3 96
2021-02-24 06:00:00 7 6 Sur 9 Sudeste 0 1031.3 -0.1 96
2021-02-24 05:00:00 8.3 4 Oeste 9 Noroeste 0 1031.2 -- 95
2021-02-24 04:00:00 8.9 0 Calma 5 Sur 0 1031.2 -- 95
2021-02-24 03:00:00 10.3 4 Oeste 6 Oeste 0 1031.4 -- 94
2021-02-24 02:00:00 12.1 0 Calma 6 Noroeste 0 1031.7 -0.3 92
2021-02-24 01:00:00 13.9 6 Noroeste 9 Noroeste 0 1031.7 -- 92
2021-02-24 00:00:00 14.3 5 Norte 9 Norte 0 1031.9 -- 90
2021-02-23 23:00:00 14.3 5 Norte 12 Nordeste 0 1032 -- 91
2021-02-23 22:00:00 14.7 8 Norte 14 Norte 0 1031.9 -- 88
2021-02-23 21:00:00 14.7 7 Norte 13 Norte 0 1031.4 1.6 87
2021-02-23 20:00:00 14.8 8 Norte 15 Nordeste 0 1030.9 -- 84
2021-02-23 19:00:00 15 9 Nordeste 16 Nordeste 0 1030.5 -- 81
2021-02-23 18:00:00 15.3 11 Nordeste 22 Nordeste 0 1029.8 -- 82
2021-02-23 17:00:00 16.2 15 Nordeste 26 Nordeste 0 1029.3 -- 77
2021-02-23 16:00:00 16.4 18 Nordeste 27 Nordeste 0 1029.1 -- 81
2021-02-23 15:00:00 16.3 14 Nordeste 26 Nordeste 0 1029 -- 81
2021-02-23 14:00:00 17 18 Nordeste 26 Nordeste 0 1028.7 -- 78
2021-02-23 13:00:00 16.2 10 Norte 20 Nordeste 0 1029.3 -- 79
2021-02-23 12:00:00 15.6 12 Norte 20 Norte 0 1029.5 -- 79
2021-02-23 11:00:00 15 10 Nordeste 13 Nordeste 0 1029.2 -- 82
2021-02-23 10:00:00 12.4 2 Norte 5 Sur 0 1028.5 -- 92
2021-02-23 09:00:00 10.1 3 Sur 9 Sudoeste 0 1028 -- 94
2021-02-23 08:00:00 8.4 4 Sur 9 Sudoeste 0 1027.3 -- 95
2021-02-23 07:00:00 8.4 4 Sur 9 Sudoeste 0 1026.6 -- 95
2021-02-23 06:00:00 8.1 4 Sur 7 Sur 0 1025.9 -- 95
2021-02-23 05:00:00 8.2 5 Sur 7 Sur 0 1025 -- 95
2021-02-23 04:00:00 8.3 4 Sudoeste 9 Sur 0 1024.7 -- 95
2021-02-23 03:00:00 8.2 6 Sur 9 Sur 0 1024.3 -- 95
2021-02-23 02:00:00 8 5 Sur 10 Sudoeste 0 1024 -- 95
2021-02-23 01:00:00 7.6 5 Sur 11 Sur 0 1023.4 -- 95
2021-02-23 00:00:00 8.5 5 Sudoeste 8 Sudoeste 0 1022.8 -- 95
2021-02-22 23:00:00 9.3 3 Sudoeste 6 Sudoeste 0 1022.2 -- 94
2021-02-22 22:00:00 10.2 4 Sudoeste 6 Oeste 0 1021.3 -- 93
2021-02-22 21:00:00 10.8 4 Noroeste 6 Noroeste 0 1020.4 -- 91
2021-02-22 20:00:00 11.2 3 Sudoeste 6 Sur 0 1019.4 -- 88
2021-02-22 19:00:00 13 4 Sudeste 12 Sudeste 0 1018.1 -- 81
2021-02-22 18:00:00 15 8 Sudeste 17 Sudeste 0 1017 -- 75
2021-02-22 17:00:00 15.1 6 Sudeste 20 Sudeste 0 1016 -- 75
2021-02-22 16:00:00 15.6 14 Sur 26 Sur 0 1015.5 -- 73
2021-02-22 15:00:00 15.4 6 Sudoeste 27 Sur 0 1014.6 -- 76
2021-02-22 14:00:00 15.9 11 Sur 21 Sur 0 1014.3 -- 72
2021-02-22 13:00:00 14.9 10 Sur 17 Sur 0.2 1014 -- 78
2021-02-22 12:00:00 14.3 5 Sur 13 Sur 0 1014.4 -- 83
2021-02-22 11:00:00 14.6 6 Sudoeste 12 Sur 0 1013.8 -- 78
2021-02-22 10:00:00 14 4 Sudoeste 12 Sudoeste 0 1013 -- 85
2021-02-22 09:00:00 13.9 6 Sudoeste 15 Sur 0 1012.7 -- 84
2021-02-22 08:00:00 13.8 6 Sudeste 32 Sudoeste 0 1011.9 -- 84
2021-02-22 07:00:00 14.5 14 Sudoeste 32 Sudoeste 0 1010.2 0.9 79
2021-02-22 06:00:00 14.3 11 Sudoeste 24 Sur 0 1010.2 -- 82
2021-02-22 05:00:00 14.4 8 Sudoeste 20 Sudoeste 0 1009.6 -- 84
2021-02-22 04:00:00 14.4 6 Sudoeste 19 Sudoeste 0 1009.3 -- 86
2021-02-22 03:00:00 15.1 12 Sudoeste 21 Sudoeste 0 1008.8 -- 84
2021-02-22 02:00:00 15.8 12 Sur 24 Sur 0 1008.6 -- 80
2021-02-22 01:00:00 16.5 13 Sudoeste 28 Sudoeste 0 1008.2 -- 73
2021-02-22 00:00:00 16.6 9 Sudoeste 15 Sudoeste 0 1007.3 -- 68
2021-02-21 23:00:00 14.9 3 Sudoeste 7 Noroeste 0 1006.8 -- 78
2021-02-21 22:00:00 15.7 3 Noroeste 9 Noroeste 0 1006.6 0.7 73
2021-02-21 21:00:00 16.4 5 Norte 15 Este 0 1006.1 -- 70
2021-02-21 20:00:00 16.3 7 Norte 19 Nordeste 0 1006.3 -- 70
2021-02-21 19:00:00 16 7 Norte 17 Norte 0 1005.9 -- 71
2021-02-21 18:00:00 17.2 6 Norte 20 Este 0 1005.6 -- 66
2021-02-21 17:00:00 17.8 11 Este 21 Este 0 1005.6 -- 65
2021-02-21 16:00:00 18.1 11 Sudeste 22 Este 0 1006.3 -- 65
2021-02-21 15:00:00 17.7 14 Este 26 Sudeste 0 1006.5 -- 69
2021-02-21 14:00:00 18 17 Sudeste 29 Sudeste 0 1007.3 -- 69
2021-02-21 13:00:00 17.8 15 Este 31 Sudeste 0 1008.5 -- 71
2021-02-21 12:00:00 17.6 14 Sudeste 30 Este 0 1009.7 -- 73
2021-02-21 11:00:00 16.6 15 Sudeste 25 Sudeste 0 1010.2 -- 75
2021-02-21 10:00:00 14.8 6 Noroeste 14 Noroeste 0 1010.4 -- 82
2021-02-21 09:00:00 12.1 6 Noroeste 14 Noroeste 0 1010.8 -- 87
2021-02-21 08:00:00 9 5 Noroeste 12 Noroeste 0 1010.6 -- 97
2021-02-21 07:00:00 7.7 3 Noroeste 8 Sudoeste 0 1010.8 -- 96
2021-02-21 06:00:00 7.7 3 Oeste 10 Oeste 0 1011.5 -- 95
2021-02-21 05:00:00 9.9 6 Oeste 12 Oeste 0 1012.1 -- 95
2021-02-21 04:00:00 7.9 3 Sudoeste 9 Oeste 0 1012.5 -- 95
2021-02-21 03:00:00 7.7 3 Sudoeste 8 Oeste 0 1013.3 -- 95
2021-02-21 02:00:00 6.9 3 Sudoeste 13 Oeste 0 1014 -- 92
2021-02-21 01:00:00 8.3 4 Sudoeste 11 Oeste 0 1014.3 -- 90
2021-02-21 00:00:00 8.7 7 Oeste 11 Sudoeste 0 1014.9 -- 90
2021-02-20 23:00:00 9 5 Oeste 13 Oeste 0 1015.3 -- 88
2021-02-20 22:00:00 9.4 5 Oeste 11 Oeste 0 1015.5 -- 89
2021-02-20 21:00:00 10.9 5 Oeste 9 Oeste 0 1015.5 -- 90
2021-02-20 20:00:00 12.2 6 Sur 14 Sudeste 0 1015.4 -- 87
2021-02-20 19:00:00 13.1 9 Sudeste 15 Sudeste 0 1015.1 -- 81
2021-02-20 18:00:00 16.1 8 Sudeste 15 Sudeste 0 1014.9 -- 64
2021-02-20 17:00:00 18.4 8 Sudeste 21 Sudeste 0 1014.9 -- 54
2021-02-20 16:00:00 18.9 13 Sudeste 22 Sudeste 0 1015 -- 46
2021-02-20 15:00:00 19.2 14 Sudeste 22 Sudeste 0 1015.6 -- 47
2021-02-20 14:00:00 19.3 11 Sudeste 20 Sur 0 1016.3 -- 48
2021-02-20 13:00:00 18.3 9 Sur 19 Sur 0 1017.2 -- 55
2021-02-20 12:00:00 16.6 7 Sur 15 Sur 0 1017.8 -- 60
2021-02-20 11:00:00 14.2 4 Sur 9 Sur 0 1018 -- 80
2021-02-20 10:00:00 11.5 2 Sur 7 Sur 0 1017.8 -- 90
2021-02-20 09:00:00 6.3 5 Sur 8 Sur 0 1018.1 1.3 96
2021-02-20 08:00:00 4.1 3 Sudoeste 7 Oeste 0 1017.3 -- 96
2021-02-20 07:00:00 5.2 4 Sudoeste 9 Sudoeste 0 1017 -- 96
2021-02-20 06:00:00 5.4 3 Sur 7 Sur 0 1016.8 -- 97
2021-02-20 05:00:00 6.8 2 Sudoeste 10 Sudoeste 0 1016.6 -- 96
2021-02-20 04:00:00 8.2 5 Sur 9 Sur 0 1016.8 -0.6 96
2021-02-20 03:00:00 10 7 Sur 14 Sur 0 1017.1 -- 96
2021-02-20 02:00:00 10.1 6 Sur 10 Sudoeste 0 1017.4 -- 97
2021-02-20 01:00:00 10 4 Sudoeste 11 Sudoeste 0 1017.4 -- 96
2021-02-20 00:00:00 9.8 5 Sudoeste 11 Sudoeste 0 1017.6 -- 95
2021-02-19 23:00:00 8.7 5 Sudeste 8 Sur 0 1017.7 0.5 95
2021-02-19 22:00:00 9.3 6 Sur 11 Sur 0 1017.4 -- 94
2021-02-19 21:00:00 10.1 6 Sur 12 Sudoeste 0 1017.3 -- 92
2021-02-19 20:00:00 11 5 Sudoeste 11 Sudoeste 0 1017.2 -- 91
2021-02-19 19:00:00 11.7 3 Sudoeste 8 Nordeste 0 1016.8 -- 88
2021-02-19 18:00:00 13.8 5 Nordeste 14 Nordeste 0 1016.6 -- 82
2021-02-19 17:00:00 14.6 11 Nordeste 19 Nordeste 0 1016.6 -0.5 78
2021-02-19 16:00:00 15.5 13 Nordeste 22 Nordeste 0 1016.7 -- 74
2021-02-19 15:00:00 16.8 8 Nordeste 18 Nordeste 0 1016.8 -- 70
2021-02-19 14:00:00 16.6 8 Nordeste 15 Nordeste 0 1017.1 -- 69
2021-02-19 13:00:00 16 8 Nordeste 14 Nordeste 0 1017.9 -- 71
2021-02-19 12:00:00 15.3 4 Nordeste 11 Nordeste 0 1018.3 -- 72
2021-02-19 11:00:00 14 4 Nordeste 8 Nordeste 0 1018.4 -- 79
2021-02-19 10:00:00 11.5 3 Sudoeste 10 Sur 0 1018.4 -- 82
2021-02-19 09:00:00 7 5 Sur 10 Sudoeste 0 1018 -- 94
2021-02-19 08:00:00 4.2 7 Sudoeste 10 Sur 0 1017.3 -- 95
2021-02-19 07:00:00 3.8 4 Sudoeste 7 Sudoeste 0 1017.1 -- 95
2021-02-19 06:00:00 4.7 5 Sudoeste 9 Sudoeste 0 1016.8 -- 95
2021-02-19 05:00:00 5.2 3 Oeste 8 Sur 0 1016.2 -- 96
2021-02-19 04:00:00 5.3 3 Oeste 10 Sudoeste 0 1016.1 -- 95
2021-02-19 03:00:00 6.3 4 Sudoeste 10 Sudoeste 0 1016.5 -- 95
2021-02-19 02:00:00 6 3 Noroeste 9 Sudoeste 0 1016.3 -- 95
2021-02-19 01:00:00 6.8 2 Sudoeste 7 Noroeste 0 1016 -- 94
2021-02-19 00:00:00 8.9 4 Oeste 12 Sudoeste 0 1015.9 -- 94
2021-02-18 23:00:00 8.9 5 Sudoeste 9 Sur 0 1015.7 -- 94
2021-02-18 22:00:00 10.5 4 Sudoeste 9 Sudoeste 0 1015.6 -- 93
2021-02-18 21:00:00 11.6 5 Sudoeste 13 Sur 0 1015.5 -- 91
2021-02-18 20:00:00 13.2 8 Sudoeste 14 Sudoeste 0 1015.5 -- 88
2021-02-18 19:00:00 14.3 5 Sur 21 Sudeste 0 1014.9 -- 83
2021-02-18 18:00:00 16.6 12 Sudeste 21 Sudeste 0 1014.2 -- 73
2021-02-18 17:00:00 19.3 13 Sudeste 26 Sudeste 0 1014.2 -- 55
2021-02-18 16:00:00 19.5 15 Sudeste 26 Sudeste 0 1014.1 -- 57
2021-02-18 15:00:00 19.2 15 Sudeste 24 Este 0 1014.3 -- 59
2021-02-18 14:00:00 18.8 12 Sudeste 20 Sudeste 0 1015 -- 60
2021-02-18 13:00:00 18.6 10 Sur 17 Sur 0 1015.8 -- 60
2021-02-18 12:00:00 16.6 10 Sudeste 18 Sudeste 0 1016.7 -- 67
2021-02-18 11:00:00 15.2 8 Sur 15 Sudoeste 0 1017 -- 73
2021-02-18 10:00:00 13.1 5 Sudoeste 11 Oeste 0 1017.2 -- 80
2021-02-18 09:00:00 10.6 6 Oeste 14 Oeste 0 1017.2 -- 90
2021-02-18 08:00:00 9.9 6 Oeste 13 Oeste 0 1017 -- 92
2021-02-18 07:00:00 10.1 3 Oeste 8 Oeste 0 1016.8 -- 93
2021-02-18 06:00:00 10 3 Oeste 11 Sudoeste 0 1016.7 -- 93
2021-02-18 05:00:00 10.3 4 Sudoeste 15 Sur 0 1016.8 -- 94
2021-02-18 04:00:00 10.6 4 Sur 11 Sudoeste 0 1017.1 -- 96
2021-02-18 03:00:00 10.5 6 Sur 14 Sudoeste 0 1017.4 -- 96
2021-02-18 02:00:00 10.2 6 Sudoeste 22 Sur 0 1017.5 -- 96
2021-02-18 01:00:00 8.4 7 Sudoeste 13 Sur 0 1018.1 -- 96
2021-02-18 00:00:00 7.6 5 Sur 12 Sudoeste 0 1018.3 -- 95
2021-02-17 23:00:00 8.3 6 Sudoeste 12 Sur 0 1018.7 -- 95
2021-02-17 22:00:00 7.8 3 Sur 9 Sur 0 1018.8 -- 94
2021-02-17 21:00:00 8.5 6 Sur 9 Sudoeste 0 1018.8 -- 93
2021-02-17 20:00:00 9.3 2 Sudoeste 3 Oeste 0 1018.7 -- 90
2021-02-17 19:00:00 11.1 2 Este 12 Nordeste 0 1018.8 -- 87
2021-02-17 18:00:00 13 7 Este 16 Nordeste 0 1018.9 -- 81
2021-02-17 17:00:00 14.5 9 Nordeste 21 Nordeste 0 1018.9 -- 74
2021-02-17 16:00:00 15.9 10 Nordeste 21 Nordeste 0 1019 -- 69
2021-02-17 15:00:00 17.6 8 Este 15 Este 0 1019.2 -- 65
2021-02-17 14:00:00 17.5 5 Sur 19 Sur 0 1019.7 -- 57
2021-02-17 13:00:00 16.5 6 Sur 17 Sudoeste 0 1020.5 -- 62
2021-02-17 12:00:00 15.3 6 Sudoeste 15 Sur 0 1021.2 -- 64
2021-02-17 11:00:00 13.3 8 Sur 13 Sur 0 1021.6 -- 74
2021-02-17 10:00:00 10.3 6 Sur 10 Sur 0 1021.8 -- 88
2021-02-17 09:00:00 5.6 6 Sur 14 Este 0 1021.6 -- 95
2021-02-17 08:00:00 3.1 5 Sudoeste 12 Sudoeste 0 1021.4 -- 96
2021-02-17 07:00:00 3.2 5 Sur 10 Sur 0 1021.2 -- 96
2021-02-17 06:00:00 3.2 6 Sudoeste 10 Sur 0 1021.1 -- 96
2021-02-17 05:00:00 2.9 4 Sur 9 Sudoeste 0 1021.1 -- 95
2021-02-17 04:00:00 3.8 4 Sudoeste 10 Sudoeste 0 1021.4 -- 95
2021-02-17 03:00:00 3.9 4 Sudoeste 6 Sur 0 1021.8 -- 94
2021-02-17 02:00:00 5.2 5 Noroeste 10 Noroeste 0 1021.8 -- 95
2021-02-17 01:00:00 5.4 5 Nordeste 8 Nordeste 0 1021.8 -- 94
2021-02-17 00:00:00 6.5 3 Sur 11 Sudoeste 0 1021.5 -- 92
2021-02-16 23:00:00 6.8 6 Sudoeste 14 Sudoeste 0 1021.8 -- 91
2021-02-16 22:00:00 8.3 9 Sudoeste 16 Sudoeste 0 1022.1 -- 87
2021-02-16 21:00:00 8.1 7 Sur 11 Sur 0 1022.2 -- 87
2021-02-16 20:00:00 9 6 Sur 10 Sur 0 1022.4 -- 83
2021-02-16 19:00:00 10.9 8 Sudoeste 19 Sur 0 1021.9 -- 75
2021-02-16 18:00:00 13 13 Sudoeste 28 Sur 0 1021.8 -- 66
2021-02-16 17:00:00 14.1 14 Sudoeste 29 Sudoeste 0 1022.2 -- 61
2021-02-16 16:00:00 14.7 15 Sur 30 Sudoeste 0 1022.7 -- 58
2021-02-16 15:00:00 15.2 13 Sudoeste 28 Sudoeste 0 1023.7 -- 56
2021-02-16 14:00:00 15.2 13 Sudoeste 26 Sudoeste 0 1024.6 -- 58
2021-02-16 13:00:00 14.1 12 Sudoeste 26 Sudoeste 0 1024.9 -- 59
2021-02-16 12:00:00 13.5 10 Sudoeste 24 Sudoeste 0 1025.9 -- 61
2021-02-16 11:00:00 13 10 Sudoeste 25 Sudoeste 0 1026.3 -- 64
2021-02-16 10:00:00 10.8 4 Sur 10 Sur 0 1026.5 -- 76
2021-02-16 09:00:00 6.1 4 Sur 10 Sudoeste 0 1026.7 -- 90
2021-02-16 08:00:00 3.4 8 Sudoeste 12 Sudoeste 0 1026.8 -- 94
2021-02-16 07:00:00 3.1 6 Sudoeste 9 Sur 0 1027.1 -- 93
2021-02-16 06:00:00 3.8 5 Sur 10 Sudoeste 0 1027.7 -- 93
2021-02-16 05:00:00 4.3 5 Sur 9 Sudoeste 0 1028 -- 92
2021-02-16 04:00:00 4.8 6 Sur 8 Sudoeste 0 1028.5 -- 92
2021-02-16 03:00:00 5.5 4 Sur 10 Sudoeste 0 1029.2 -- 90
2021-02-16 02:00:00 7.1 7 Sudoeste 9 Sur 0 1029.9 -- 85
2021-02-16 01:00:00 7.2 4 Sur 8 Sudoeste 0 1030.6 -- 85
2021-02-16 00:00:00 8.3 4 Sur 7 Sudoeste 0 1030.9 -- 80
2021-02-15 23:00:00 9.1 4 Sudoeste 9 Sur 0 1031.3 -- 73
2021-02-15 22:00:00 9.3 4 Sudoeste 9 Sur 0 1031.6 -- 73
2021-02-15 21:00:00 9.6 5 Sur 9 Sur 0 1031.7 -- 71
2021-02-15 20:00:00 10 4 Sur 10 Sudoeste 0 1031.7 -- 68
2021-02-15 19:00:00 10.3 4 Sudoeste 12 Sur 0 1031.8 -- 65
2021-02-15 18:00:00 10.7 8 Sudeste 20 Sudeste 0 1031.6 -- 62
2021-02-15 17:00:00 11.2 10 Sudeste 19 Sudeste 0 1031.7 -- 61
2021-02-15 16:00:00 12.1 9 Sudeste 18 Sudeste 0 1031.9 -- 58
2021-02-15 15:00:00 12.1 7 Sudeste 13 Sudeste 0 1032.1 -- 56
2021-02-15 14:00:00 12.2 6 Sur 14 Sudeste 0 1032.5 -- 57
2021-02-15 13:00:00 11.6 5 Sur 17 Sudeste 0 1033.2 -- 60
2021-02-15 12:00:00 11 8 Sudeste 17 Sudeste 0 1033.6 -- 62
2021-02-15 11:00:00 10.2 5 Sur 9 Sur 0 1033.7 -- 65
2021-02-15 10:00:00 9.2 3 Sudoeste 7 Sur 0 1033.6 -- 81
2021-02-15 09:00:00 7.1 4 Sudoeste 8 Sudoeste 0 1033 -- 88
2021-02-15 08:00:00 6.3 4 Sudoeste 12 Sudeste 0 1032.4 -- 87
2021-02-15 07:00:00 5.9 6 Sur 13 Sudeste 0 1032 -- 90
2021-02-15 06:00:00 4.7 3 Sur 6 Sur 0 1032.2 -- 93
2021-02-15 05:00:00 3.8 3 Sudoeste 7 Sur 0 1032.3 -- 93
2021-02-15 04:00:00 4 3 Sudeste 6 Oeste 0 1032.3 -- 92
2021-02-15 03:00:00 5.5 3 Sudoeste 6 Oeste 0 1032.7 -- 91
2021-02-15 02:00:00 6.5 5 Oeste 7 Oeste 0 1032.9 -- 88
2021-02-15 01:00:00 6.8 2 Sur 4 Sudeste 0 1032.8 -- 87
2021-02-15 00:00:00 7 0 Calma 4 Oeste 0 1032.8 -- 84
2021-02-14 23:00:00 6.9 0 Calma 4 Nordeste 0 1032.4 -- 83
2021-02-14 22:00:00 7.8 3 Norte 6 Nordeste 0 1032.2 -- 76
2021-02-14 21:00:00 8.7 4 Nordeste 9 Nordeste 0 1032.2 -- 73
2021-02-14 20:00:00 8.9 3 Norte 8 Nordeste 0 1032 -- 72
2021-02-14 19:00:00 9.4 5 Nordeste 17 Nordeste 0 1031.5 1.2 67
2021-02-14 18:00:00 10 8 Nordeste 19 Este 0 1031.1 1 65
2021-02-14 17:00:00 10.6 12 Nordeste 22 Nordeste 0 1030.6 -- 62
2021-02-14 16:00:00 11.2 9 Nordeste 22 Este 0 1030.3 -- 59
2021-02-14 15:00:00 11 11 Nordeste 27 Nordeste 0 1030.1 -- 64
2021-02-14 14:00:00 11 13 Nordeste 24 Nordeste 0 1030 -- 66
2021-02-14 13:00:00 11.8 12 Nordeste 25 Nordeste 0 1030 -- 62
2021-02-14 12:00:00 11.3 13 Nordeste 23 Este 0 1030.1 -- 67
2021-02-14 11:00:00 11.7 12 Nordeste 23 Nordeste 0 1029.5 -- 69
2021-02-14 10:00:00 11.6 13 Nordeste 23 Nordeste 0 1028.5 -- 69
2021-02-14 09:00:00 11.3 12 Nordeste 17 Nordeste 0 1027.6 -- 73
2021-02-14 08:00:00 11.1 12 Nordeste 21 Nordeste 0 1026.7 -- 74
2021-02-14 07:00:00 11.4 10 Norte 18 Norte 0 1026 -- 75
2021-02-14 06:00:00 11.6 8 Norte 12 Norte 0 1025.3 -- 83
2021-02-14 05:00:00 11.4 3 Norte 7 Noroeste 0 1024.6 -- 93
2021-02-14 04:00:00 11.5 2 Norte 7 Norte 0 1024.4 -- 91
2021-02-14 03:00:00 11.5 2 Nordeste 8 Nordeste 0 1024.5 -- 91
2021-02-14 02:00:00 11.6 3 Nordeste 9 Nordeste 0 1024.2 -- 91
2021-02-14 01:00:00 11.5 3 Oeste 5 Norte 0 1023.7 -- 90
2021-02-14 00:00:00 12 0 Calma 6 Nordeste 0 1023.7 -- 87
2021-02-13 23:00:00 12.1 5 Nordeste 9 Nordeste 0 1023.7 -- 87
2021-02-13 22:00:00 12.2 0 Calma 8 Norte 0 1023.3 -- 87
2021-02-13 21:00:00 12.5 5 Nordeste 8 Nordeste 0 1022.7 -- 85
2021-02-13 20:00:00 12.5 4 Nordeste 9 Nordeste 0 1022.1 -- 84
2021-02-13 19:00:00 12.5 4 Nordeste 11 Nordeste 0 1021.4 -- 83
2021-02-13 18:00:00 13.2 5 Nordeste 12 Este 0 1020.6 -- 80
2021-02-13 17:00:00 14.3 5 Este 13 Nordeste 0 1020.1 -- 73
2021-02-13 16:00:00 14 7 Nordeste 19 Nordeste 0 1019.8 -- 75
2021-02-13 15:00:00 14.7 11 Nordeste 19 Nordeste 0 1019.7 -- 72
2021-02-13 14:00:00 14.9 12 Nordeste 19 Nordeste 0 1019.8 -- 70
2021-02-13 13:00:00 14.7 7 Nordeste 17 Nordeste 0 1020 -- 71
2021-02-13 08:00:00 9.9 6 Sudoeste 12 Sudoeste 0 1018.1 1.9 95
2021-02-13 07:00:00 10.5 4 Nordeste 14 Nordeste 0 1017.3 1.9 94
2021-02-13 06:00:00 10.1 5 Sudeste 18 Nordeste 0 1016.4 1.3 93
2021-02-13 05:00:00 9.9 5 Oeste 12 Sur 0 1016.2 1.5 96
2021-02-13 04:00:00 10.3 4 Sur 7 Noroeste 0 1015.4 1.1 95
2021-02-13 03:00:00 11.1 3 Noroeste 6 Sudoeste 0 1015.1 1.1 95
2021-02-13 02:00:00 11.2 3 Oeste 10 Este 0.2 1014.7 1.1 95
2021-02-13 01:00:00 11.7 5 Sur 11 Sudeste 0 1014.3 1.5 94
2021-02-13 00:00:00 12.2 5 Oeste 14 Noroeste 0.6 1014 1.9 92
2021-02-12 23:00:00 12.2 4 Norte 15 Noroeste 1.2 1013.6 2.1 92
2021-02-12 22:00:00 13 5 Noroeste 32 Noroeste 0.2 1012.8 1.9 82
2021-02-12 21:00:00 15 19 Noroeste 47 Noroeste 0 1012.1 1.8 65
2021-02-12 20:00:00 15.5 18 Noroeste 41 Noroeste 0 1011.5 1.8 60
2021-02-12 19:00:00 15.2 10 Noroeste 30 Noroeste 0 1010.9 1.6 62
2021-02-12 18:00:00 16 10 Noroeste 47 Noroeste 0 1010.3 0 62
2021-02-12 17:00:00 17.9 8 Oeste 32 Sudoeste 0 1009.7 -1.2 61
2021-02-12 16:00:00 16.5 15 Sudoeste 34 Sudoeste 0 1009.3 -2.1 78
2021-02-12 15:00:00 15.4 12 Sur 31 Sur 0 1010.3 -1.8 85
2021-02-12 14:00:00 15.6 15 Sudoeste 30 Sudoeste 0 1010.9 -1.2 84
2021-02-12 13:00:00 16 15 Sudoeste 34 Sudoeste 0 1011.4 -1.2 83
2021-02-12 12:00:00 16.1 17 Sur 41 Sudoeste 0 1012.1 -0.7 83
2021-02-12 11:00:00 15.2 17 Sudoeste 37 Sur 0 1012.1 -0.8 88
2021-02-12 10:00:00 14 15 Sur 27 Sur 0 1012.6 -0.2 94
2021-02-12 09:00:00 13.5 12 Sur 23 Sur 0 1012.8 -- 95
2021-02-12 08:00:00 12.7 13 Sur 24 Sur 0 1012.9 -- 96
2021-02-12 07:00:00 12.3 11 Sudoeste 21 Sudoeste 0 1012.8 -- 96
2021-02-12 06:00:00 11.8 6 Sur 14 Sur 0 1013.2 -- 96
2021-02-12 05:00:00 10.6 8 Sur 14 Sur 0 1013.4 -- 96
2021-02-12 04:00:00 9.1 4 Sur 13 Sur 0 1014 -- 94
2021-02-12 03:00:00 9.7 8 Sudoeste 12 Sudoeste 0 1014.3 -- 95
2021-02-12 02:00:00 7 5 Sur 8 Sudoeste 0 1014.5 -- 95
2021-02-12 01:00:00 8 4 Sur 7 Sur 0 1015 -- 94
2021-02-12 00:00:00 8.6 0 Calma 5 Noroeste 0 1015.2 -- 93
2021-02-11 23:00:00 9.8 4 Sudoeste 11 Sudoeste 0 1015.6 -- 92
2021-02-11 22:00:00 10.3 5 Sur 10 Sur 0 1015.6 -- 90
2021-02-11 21:00:00 11 3 Sur 8 Sur 0 1015.1 -- 84
2021-02-11 20:00:00 11.6 6 Sudoeste 9 Sudoeste 0 1014.9 -- 83
2021-02-11 19:00:00 12.9 5 Norte 10 Nordeste 0 1014 -- 82
2021-02-11 18:00:00 15.9 4 Sudeste 17 Sudoeste 0 1013.7 -- 65
2021-02-11 17:00:00 18.2 10 Sudoeste 22 Sudoeste 0 1013.6 -- 46
2021-02-11 16:00:00 19.9 8 Sudoeste 25 Sur 0 1013.4 -- 43
2021-02-11 15:00:00 20 13 Sur 22 Sur 0 1013.4 -- 39
2021-02-11 14:00:00 19.5 14 Sur 26 Sur 0 1013.9 -- 44
2021-02-11 13:00:00 19.2 10 Sudoeste 27 Sur 0 1014.4 -- 48
2021-02-11 12:00:00 17.6 14 Sudoeste 24 Sudoeste 0 1014.9 -- 51
2021-02-11 11:00:00 15.9 9 Sur 19 Sur 0 1014.9 -- 61
2021-02-11 10:00:00 13.1 6 Sur 11 Sur 0 1014.5 -- 71
2021-02-11 09:00:00 9.5 6 Sudoeste 16 Sudoeste 0 1014.6 -- 80
2021-02-11 08:00:00 6.7 12 Sudoeste 17 Sudoeste 0 1014.2 -- 84
2021-02-11 07:00:00 5.9 7 Sur 13 Sur 0 1014.1 -- 88
2021-02-11 06:00:00 4.5 5 Sudoeste 13 Sur 0 1013.8 -- 88
2021-02-11 05:00:00 5.1 5 Sudoeste 11 Sudoeste 0 1013.8 -- 85
2021-02-11 04:00:00 7.1 7 Oeste 12 Noroeste 0 1013.2 -- 78
2021-02-11 03:00:00 5.9 5 Sudeste 14 Sur 0 1013.3 -- 83
2021-02-11 02:00:00 7 6 Sur 13 Sudoeste 0 1013.6 -- 75
2021-02-11 01:00:00 8.1 4 Sudoeste 15 Oeste 0 1013 -- 73
2021-02-11 00:00:00 7.9 6 Sudeste 13 Noroeste 0 1012.7 -- 75
2021-02-10 23:00:00 8.9 6 Sur 17 Oeste 0 1012.4 -- 69
2021-02-10 22:00:00 10.6 5 Oeste 21 Oeste 0 1011.5 -- 63
2021-02-10 21:00:00 12.7 6 Oeste 23 Noroeste 0 1010.6 -- 53
2021-02-10 20:00:00 12.4 9 Noroeste 26 Noroeste 0 1009.5 -- 56
2021-02-10 19:00:00 12.5 5 Oeste 18 Sudoeste 0 1008.4 -- 55
2021-02-10 18:00:00 13.6 8 Sudeste 30 Sudoeste 0 1006.9 -- 53
2021-02-10 17:00:00 14.5 12 Oeste 42 Oeste 0 1005.4 -- 49
2021-02-10 16:00:00 15.2 15 Oeste 50 Oeste 0 1004.3 -- 47
2021-02-10 15:00:00 14.9 19 Oeste 43 Oeste 0 1003.4 -- 42
2021-02-10 14:00:00 14.7 14 Noroeste 41 Oeste 0 1003.1 -- 50
2021-02-10 13:00:00 15.9 15 Oeste 58 Oeste 0.2 1002.3 -- 54
2021-02-10 12:00:00 17.1 20 Sudoeste 52 Sudoeste 0 1001.1 -- 48
2021-02-10 11:00:00 15.9 22 Sudoeste 59 Sudoeste 0.2 1000.5 -- 48
2021-02-10 10:00:00 16.6 25 Sudoeste 56 Sudoeste 0.4 1000.1 -- 54
2021-02-10 09:00:00 16.4 26 Sudoeste 59 Oeste 0 999.8 -- 41
2021-02-10 08:00:00 15.7 25 Sudoeste 58 Sudoeste 0 999.5 -- 43
2021-02-10 07:00:00 15.2 22 Sudoeste 55 Sudoeste 0 999.8 -- 46
2021-02-10 06:00:00 15.6 22 Sudoeste 59 Sudoeste 0 999.3 -- 48
2021-02-10 05:00:00 14.1 23 Sudoeste 53 Oeste 0 999.3 -- 74
2021-02-10 04:00:00 16.2 26 Sudoeste 51 Sudoeste 0 999.5 -- 53
2021-02-10 03:00:00 13.8 19 Sudoeste 47 Sudoeste 0 999.8 -- 79
2021-02-10 02:00:00 14.4 23 Sudoeste 45 Sudoeste 0 1000 -- 76
2021-02-10 01:00:00 13.6 19 Sudoeste 39 Sur 0 1000.3 -- 86
2021-02-10 00:00:00 14.3 23 Sudoeste 52 Sudoeste 0 1000.4 -- 86
2021-02-09 23:00:00 14.4 24 Sudoeste 58 Sudoeste 0 1000.4 -- 84
2021-02-09 22:00:00 13.8 18 Sudoeste 35 Sudoeste 0.2 1001 -- 88
2021-02-09 21:00:00 13.4 15 Sudoeste 31 Sudoeste 0.2 1001.6 -- 86
2021-02-09 20:00:00 13 11 Sudoeste 31 Sur 0 1001.8 -- 87
2021-02-09 19:00:00 13.6 17 Sudoeste 44 Sudoeste 0 1001.7 -- 82
2021-02-09 18:00:00 14 20 Sudoeste 41 Sudoeste 0 1001 -- 80
2021-02-09 17:00:00 14.6 19 Sudoeste 48 Sudoeste 0 1001 -- 67
2021-02-09 16:00:00 15.1 17 Sudoeste 42 Sudoeste 0 1001.9 -- 64
2021-02-09 15:00:00 15.7 18 Sur 34 Sur 0 1002.3 -- 57
2021-02-09 14:00:00 17.2 12 Sudoeste 40 Sudoeste 0 1003 -- 43
2021-02-09 13:00:00 16.9 22 Sudoeste 45 Sudoeste 0 1003.8 -- 44
2021-02-09 12:00:00 15.4 12 Sudoeste 27 Sudoeste 0 1004.8 -- 55
2021-02-09 11:00:00 14.4 15 Sudoeste 28 Sudoeste 0 1005.1 -- 61
2021-02-09 10:00:00 13.7 12 Sudoeste 22 Sudoeste 0 1004.8 -- 64
2021-02-09 09:00:00 11.2 9 Sur 17 Sur 0 1004.6 -- 75
2021-02-09 08:00:00 9.4 7 Sur 16 Sur 0 1004.2 -- 79
2021-02-09 07:00:00 10.6 9 Sur 15 Sur 0 1003.9 -- 76
2021-02-09 06:00:00 11.4 8 Sudoeste 27 Oeste 0 1003.3 -- 70
2021-02-09 05:00:00 13.4 12 Sudoeste 27 Oeste 0 1002.6 -- 59
2021-02-09 04:00:00 12.6 8 Sudoeste 19 Sur 0 1002.3 -- 63
2021-02-09 03:00:00 13 9 Sudoeste 24 Sudoeste 0 1002 -- 60
2021-02-09 02:00:00 12 7 Sudoeste 19 Oeste 0 1001.5 -- 66
2021-02-09 01:00:00 13.1 10 Sudoeste 30 Sudoeste 0 1001 -- 60
2021-02-09 00:00:00 14 14 Sudoeste 41 Oeste 0 1000.3 -- 62
2021-02-08 23:00:00 13.7 13 Sudoeste 29 Sudoeste 0 1000.1 -- 59
2021-02-08 22:00:00 14.1 13 Sudoeste 27 Sudoeste 0 999.8 -- 57
2021-02-08 21:00:00 14.5 13 Sudoeste 38 Sudoeste 0 998.7 -- 52
2021-02-08 20:00:00 15 18 Sudoeste 33 Sudoeste 0 997.8 -- 49
2021-02-08 19:00:00 14.7 12 Sudoeste 28 Sudoeste 0 997.7 -- 52
2021-02-08 18:00:00 15.1 9 Sudoeste 35 Sudoeste 0 996.8 -- 52
2021-02-08 17:00:00 16.2 13 Sudoeste 43 Oeste 0 995.8 -- 51
2021-02-08 16:00:00 15.6 18 Sudoeste 52 Sudoeste 0 995.2 -- 63
2021-02-08 15:00:00 13.8 19 Sudoeste 43 Sudoeste 0.4 995.4 -- 86
2021-02-08 14:00:00 13.2 19 Sudoeste 48 Sudoeste 0.2 997.3 -- 86
2021-02-08 13:00:00 13.5 20 Sudoeste 57 Sudoeste 0 998.1 -- 75
2021-02-08 12:00:00 14.9 19 Sudoeste 43 Sur 0 998.8 -- 64
2021-02-08 11:00:00 15.1 22 Sudoeste 44 Sudoeste 0 998.9 -- 61
2021-02-08 10:00:00 13.9 21 Sudoeste 46 Sudoeste 0 998.5 -- 65
2021-02-08 09:00:00 12.5 16 Sudoeste 42 Sudoeste 0 998.7 -- 71
2021-02-08 08:00:00 11.6 18 Sudoeste 36 Sur 0 998.4 -- 75
2021-02-08 07:00:00 10.8 9 Sudoeste 21 Sur 0 998.5 -- 79
2021-02-08 06:00:00 9.8 9 Sur 22 Sur 0 998.7 -- 82
2021-02-08 05:00:00 9 13 Sur 20 Sur 0 999 -- 81
2021-02-08 04:00:00 8.3 10 Sur 21 Sudoeste 0 999.3 -- 80
2021-02-08 03:00:00 8.1 13 Sudoeste 22 Sudoeste 0 1000 -- 77
2021-02-08 02:00:00 7.5 8 Sudoeste 17 Sudoeste 0 1000.4 -- 76
2021-02-08 01:00:00 8 10 Sudoeste 22 Sudoeste 0 1000.9 -- 73
2021-02-08 00:00:00 8.4 10 Sudoeste 21 Sudoeste 0 1001.3 -- 71
2021-02-07 23:00:00 6.5 6 Sur 10 Sur 0 1001.7 -- 82
2021-02-07 22:00:00 6.5 5 Sur 10 Sur 0 1001.9 -- 79
2021-02-07 21:00:00 7.2 5 Sudoeste 9 Sur 0 1002 -- 77
2021-02-07 20:00:00 8.6 6 Sudeste 9 Sudoeste 0 1001.8 -- 70
2021-02-07 19:00:00 9 0 Calma 10 Este 0 1001.3 -- 71
2021-02-07 18:00:00 11.9 5 Nordeste 15 Sudoeste 0 1000.5 -- 58
2021-02-07 17:00:00 14.3 3 Oeste 18 Noroeste 0 1000.3 -- 45
2021-02-07 16:00:00 13.7 13 Noroeste 30 Noroeste 0 1000.1 -- 43
2021-02-07 15:00:00 14.4 9 Noroeste 24 Noroeste 0 999.9 -- 45
2021-02-07 14:00:00 13.2 15 Noroeste 31 Noroeste 0 1000.2 -- 48
2021-02-07 13:00:00 13.3 17 Noroeste 31 Noroeste 0 1000.3 -- 50
2021-02-07 12:00:00 14 14 Noroeste 29 Noroeste 0 1000.5 -- 55
2021-02-07 11:00:00 14.3 15 Noroeste 28 Noroeste 0 999.9 -- 58
2021-02-07 10:00:00 12 4 Sudeste 6 Sudeste 0 999.4 -- 83
2021-02-07 09:00:00 10 4 Sudoeste 13 Sudoeste 0 999 -- 96
2021-02-07 08:00:00 8.1 5 Este 13 Noroeste 0 998.5 -- 96
2021-02-07 07:00:00 8.7 4 Norte 10 Noroeste 0 998.1 -- 95
2021-02-07 06:00:00 10.2 2 Sur 13 Sudoeste 0 998.3 -- 94
2021-02-07 05:00:00 11.3 4 Sudoeste 12 Sudoeste 0 998.2 -- 94
2021-02-07 04:00:00 11.1 3 Sur 14 Sur 0 998.3 -- 94
2021-02-07 03:00:00 11 7 Sur 19 Sudoeste 0 998.7 -- 93
2021-02-07 02:00:00 11.6 10 Sudoeste 20 Sudoeste 0 998.9 -- 92
2021-02-07 01:00:00 12.4 12 Sudoeste 21 Sudoeste 0 999 -- 90
2021-02-07 00:00:00 12.4 8 Sudoeste 20 Sudoeste 0 999.1 -- 90
2021-02-06 23:00:00 12.9 9 Sudoeste 20 Sur 0 999.7 -- 88
2021-02-06 22:00:00 12.7 15 Sur 28 Sur 0 999.5 -- 88
2021-02-06 21:00:00 12.4 8 Sur 18 Sur 0 998.5 -- 90
2021-02-06 20:00:00 13.3 10 Sudoeste 21 Sudoeste 0 998.7 -- 88
2021-02-06 19:00:00 13.7 9 Sudoeste 22 Sudoeste 0 998.7 -- 85
2021-02-06 18:00:00 15.1 11 Sur 27 Sudoeste 0 998.5 -- 78
2021-02-06 17:00:00 16.3 15 Sur 35 Sur 0 998.2 -- 74
2021-02-06 16:00:00 17.4 17 Sur 33 Sur 0 998 -- 69
2021-02-06 15:00:00 17.4 17 Sur 35 Sudoeste 0 997.9 -- 70
2021-02-06 14:00:00 17.6 17 Sudoeste 36 Sudoeste 0 998.6 -- 67
2021-02-06 13:00:00 17.5 19 Sudoeste 41 Sudoeste 0 999.4 -- 68
2021-02-06 12:00:00 17.1 14 Sudoeste 32 Sudoeste 0 999.9 -- 73
2021-02-06 11:00:00 16.6 18 Sudoeste 31 Sur 0 1000.1 -- 79
2021-02-06 10:00:00 15.7 16 Sudoeste 31 Sudoeste 0 999.7 -- 82
2021-02-06 09:00:00 15.2 12 Sudoeste 25 Sudoeste 0 999.9 -- 84
2021-02-06 08:00:00 15.5 6 Sur 13 Sudoeste 0 999.5 -- 69
2021-02-06 07:00:00 16.5 6 Sur 18 Sudoeste 0 999 -- 60
2021-02-06 06:00:00 17.7 7 Sur 34 Sudoeste 0 999.3 -- 50
2021-02-06 05:00:00 20.5 17 Sudoeste 32 Sudoeste 0 999.8 -- 35
2021-02-06 04:00:00 21 11 Sudoeste 27 Sudoeste 0 999.7 -- 33
2021-02-06 03:00:00 21.3 10 Sudoeste 27 Oeste 0 999.9 -- 33
2021-02-06 02:00:00 14.3 2 Sur 12 Sudoeste 0 1000.3 -- 75
2021-02-06 01:00:00 13.8 4 Sudeste 19 Sudeste 0 1001 -- 75
2021-02-06 00:00:00 13.5 7 Oeste 20 Sudeste 0 1001 -- 75
2021-02-05 23:00:00 12.9 4 Sudoeste 7 Sudoeste 0 1002.1 -- 76
2021-02-05 22:00:00 12.5 5 Sur 9 Sur 0 1002.6 -- 78
2021-02-05 21:00:00 12.9 2 Sur 9 Oeste 0 1002.7 -- 74
2021-02-05 20:00:00 14 3 Noroeste 11 Noroeste 0 1003 -- 69
2021-02-05 19:00:00 15.3 3 Sudeste 12 Sudeste 0 1003.2 -- 65
2021-02-05 18:00:00 18.9 9 Sudeste 16 Sudeste 0 1002.7 -- 46
2021-02-05 17:00:00 20.7 9 Sudeste 22 Sur 0 1003.1 -- 36
2021-02-05 16:00:00 23.3 13 Sur 24 Sur 0 1003.6 -- 30
2021-02-05 15:00:00 23.6 12 Sudoeste 25 Sur 0 1003.9 -- 30
2021-02-05 14:00:00 23.4 12 Sudoeste 24 Sudoeste 0 1004.8 -- 34
2021-02-05 13:00:00 21.7 8 Sudoeste 23 Sudoeste 0 1005.8 -- 47
2021-02-05 12:00:00 19.6 8 Sur 13 Sur 0 1007.1 -- 57
2021-02-05 11:00:00 15.3 6 Sur 9 Sur 0 1007.4 -- 78
2021-02-05 10:00:00 11.1 5 Sur 9 Sudeste 0 1007.4 -- 96
2021-02-05 09:00:00 9.8 3 Sudoeste 8 Oeste 0 1007.5 -- 97
2021-02-05 08:00:00 9.8 4 Oeste 10 Oeste 0 1007.4 -- 97
2021-02-05 07:00:00 8.7 2 Sudoeste 10 Sur 0 1007.1 -- 96
2021-02-05 06:00:00 8.3 4 Norte 7 Noroeste 0 1007.2 -- 95
2021-02-05 05:00:00 7.9 2 Noroeste 15 Sur 0 1007.6 -- 94
2021-02-05 04:00:00 7.2 3 Noroeste 14 Sur 0 1007.8 -- 94
2021-02-05 03:00:00 7.3 2 Sur 9 Oeste 0 1008.1 -- 94
2021-02-05 02:00:00 7.8 5 Sudoeste 9 Sudeste 0 1008.7 -- 94
2021-02-05 01:00:00 8.6 2 Sudoeste 9 Oeste 0 1008.8 -- 93
2021-02-05 00:00:00 9.3 6 Sudoeste 9 Sudoeste 0 1009.2 -- 94
2021-02-04 23:00:00 9.7 2 Noroeste 7 Oeste 0 1008.6 -- 94
2021-02-04 22:00:00 10.4 3 Sudoeste 7 Sudeste 0 1008.6 -- 94
2021-02-04 21:00:00 11.1 5 Oeste 11 Sudoeste 0 1008.5 -- 92
2021-02-04 20:00:00 10.9 4 Sur 7 Noroeste 0 1008.4 -- 93
2021-02-04 19:00:00 12.5 3 Norte 8 Nordeste 0 1008.5 -- 90
2021-02-04 18:00:00 14.2 2 Este 10 Norte 0 1008.1 -- 85
2021-02-04 17:00:00 15.3 8 Nordeste 17 Nordeste 0 1007.8 -- 82
2021-02-04 16:00:00 15.7 9 Nordeste 17 Nordeste 0 1008 -- 80
2021-02-04 15:00:00 19.4 6 Nordeste 12 Nordeste 0 1007.9 -- 58
2021-02-04 14:00:00 17.9 6 Sur 15 Sur 0 1008.8 -- 64
2021-02-04 13:00:00 16.7 6 Sur 13 Sudoeste 0 1009.7 -- 72
2021-02-04 12:00:00 13 7 Sur 13 Sur 0 1010.7 -- 89
2021-02-04 11:00:00 10.9 4 Sudoeste 11 Sudoeste 0 1011 -- 97
2021-02-04 10:00:00 10.4 5 Sudeste 14 Sur 0 1010.9 -- 97
2021-02-04 09:00:00 10.3 5 Sur 14 Sur 0 1010.1 -- 97
2021-02-04 08:00:00 10.6 5 Sudoeste 12 Sur 0 1009.6 -- 97
2021-02-04 07:00:00 10.9 4 Sudoeste 10 Sudoeste 0 1009.6 -- 97
2021-02-04 06:00:00 10.7 4 Sur 11 Sur 0 1009.8 -- 97
2021-02-04 05:00:00 10.4 4 Sur 7 Sudoeste 0 1009.7 -- 97
2021-02-04 04:00:00 10 3 Oeste 8 Noroeste 0 1010.2 -- 97
2021-02-04 03:00:00 9.7 5 Noroeste 9 Sur 0 1010.3 -- 96
2021-02-04 02:00:00 9.9 3 Sudoeste 10 Sudoeste 0 1010.6 -- 96
2021-02-04 01:00:00 10.5 3 Sudoeste 6 Sudoeste 0 1010.9 -- 96
2021-02-04 00:00:00 10.1 3 Noroeste 8 Noroeste 0 1010.7 -- 95
2021-02-03 23:00:00 11.1 4 Sur 10 Sudoeste 0 1010.7 -- 94
2021-02-03 22:00:00 11.6 5 Sudoeste 15 Sur 0 1010.8 -- 93
2021-02-03 21:00:00 11.9 5 Sudoeste 9 Sur 0 1010.9 -- 93
2021-02-03 20:00:00 12.8 4 Sudoeste 22 Sur 0 1010.6 -- 91
2021-02-03 19:00:00 13.4 8 Sudoeste 19 Sur 0 1010.3 -- 87
2021-02-03 18:00:00 15 9 Sur 18 Sudoeste 0 1009.8 -- 75
2021-02-03 17:00:00 17.4 12 Sudoeste 23 Sur 0 1009.4 -- 66
2021-02-03 16:00:00 18.8 12 Sur 24 Sudoeste 0 1009.3 -- 60
2021-02-03 15:00:00 18.2 12 Sur 29 Sudoeste 0 1009.2 -- 63
2021-02-03 14:00:00 18.5 14 Sur 28 Sur 0 1009.6 -- 65
2021-02-03 13:00:00 18.8 9 Sudoeste 25 Sudoeste 0 1010 -- 63
2021-02-03 12:00:00 17.6 6 Sudoeste 24 Sur 0 1010.6 -- 69
2021-02-03 11:00:00 15.2 13 Sur 28 Sur 0 1010.9 -- 81
2021-02-03 10:00:00 14.2 12 Sur 28 Sur 0 1010.4 -- 86
2021-02-03 09:00:00 13.3 17 Sur 33 Sur 0 1010.2 -- 90
2021-02-03 08:00:00 12.3 12 Sudoeste 23 Sudoeste 0 1009.8 -- 92
2021-02-03 07:00:00 12.3 11 Sudoeste 26 Sudoeste 0 1009.6 -- 91
2021-02-03 06:00:00 12.8 15 Sudoeste 29 Sudoeste 0 1009.7 -- 91
2021-02-03 05:00:00 12.7 17 Sudoeste 31 Sur 0 1009.8 -- 91
2021-02-03 04:00:00 11.9 13 Sudoeste 24 Sudoeste 0 1010.1 -- 95
2021-02-03 03:00:00 11.1 10 Sudoeste 23 Sudoeste 0 1010.7 -- 94
2021-02-03 02:00:00 11.1 12 Sudoeste 21 Sudoeste 0 1010.8 -- 93
2021-02-03 01:00:00 11.3 8 Sudoeste 17 Sudoeste 0 1011.1 -- 94
2021-02-03 00:00:00 11.1 6 Sur 15 Sur 0 1011.6 -- 94
2021-02-02 23:00:00 11.8 9 Sur 23 Sur 0 1012 -- 92
2021-02-02 22:00:00 12.7 13 Sudoeste 24 Sudoeste 0 1011.9 -- 90
2021-02-02 21:00:00 12.2 9 Sur 17 Sur 0 1011.7 -- 84
2021-02-02 20:00:00 13.8 9 Sur 16 Sur 0 1011.8 -- 75
2021-02-02 19:00:00 13.7 3 Sur 6 Sur 0 1011.4 -- 73
2021-02-02 18:00:00 17 3 Este 14 Este 0 1011.3 -- 60
2021-02-02 17:00:00 18.6 10 Este 19 Este 0 1011.3 -- 55
2021-02-02 16:00:00 20.3 14 Este 22 Este 0 1010.9 -- 48
2021-02-02 15:00:00 21.7 8 Sudeste 17 Nordeste 0 1011 -- 43
2021-02-02 14:00:00 21.2 4 Este 18 Sur 0 1011.4 -- 51
2021-02-02 13:00:00 20.7 9 Sudoeste 17 Sur 0 1011.7 -- 55
2021-02-02 12:00:00 20.1 5 Sur 12 Sur 0 1012 -- 52
2021-02-02 11:00:00 18.2 4 Sur 11 Sudoeste 0 1012.1 -- 57
2021-02-02 10:00:00 15.1 4 Sur 9 Sudeste 0 1011.5 -- 69
2021-02-02 09:00:00 11.9 5 Sur 11 Sudeste 0 1011.3 -- 76
2021-02-02 08:00:00 9.3 6 Sudeste 14 Noroeste 0 1010.8 -- 82
2021-02-02 07:00:00 10.4 6 Sudoeste 13 Norte 0 1010.3 -- 78
2021-02-02 06:00:00 9.8 4 Oeste 7 Sudoeste 0 1009.9 -- 81
2021-02-02 05:00:00 11.3 5 Oeste 12 Sudoeste 0 1009.7 -- 74
2021-02-02 04:00:00 13.2 6 Sur 15 Sur 0 1009.1 -- 63
2021-02-02 03:00:00 13.4 3 Sudoeste 12 Sur 0 1008.9 -- 61
2021-02-02 02:00:00 16.3 4 Sur 27 Noroeste 0 1009 -- 51
2021-02-02 01:00:00 18.6 12 Oeste 35 Oeste 0 1008.7 -- 43
2021-02-02 00:00:00 18.3 10 Oeste 33 Oeste 0 1008.2 -- 44
2021-02-01 23:00:00 17.8 8 Oeste 32 Sudoeste 0 1007.7 -- 47
2021-02-01 22:00:00 18.4 5 Sudoeste 35 Oeste 0 1007.7 -- 44
2021-02-01 21:00:00 19.2 11 Sudoeste 40 Sudoeste 0 1007.3 -- 41
2021-02-01 20:00:00 18.4 11 Sudoeste 37 Sudoeste 0 1006.9 -- 42
2021-02-01 19:00:00 18.2 10 Oeste 46 Sudoeste 0 1006 -- 41
2021-02-01 18:00:00 18.6 18 Sudoeste 58 Sudoeste 0 1005 -- 38
2021-02-01 17:00:00 18.3 26 Noroeste 73 Noroeste 0 1003.4 -- 39
2021-02-01 16:00:00 18.2 32 Noroeste 88 Noroeste -- 1002.6 -- 38
2021-02-01 15:00:00 -- -- -- -- -- -- -- -- --
2021-02-01 14:00:00 18.4 36 Noroeste -- -- -- 1001.3 -- 38
2021-02-01 13:00:00 18.2 34 Noroeste 76 Noroeste -- 1001 -- 40
2021-02-01 12:00:00 18.2 29 Oeste 77 Oeste -- 1000.8 -- 40
2021-02-01 11:00:00 18.1 32 Noroeste 80 Oeste -- 1000.5 -- 40
2021-02-01 10:00:00 17.6 25 Oeste -- -- 0 1000.2 -- 41
2021-02-01 09:00:00 17.8 14 Sudoeste 51 Oeste 0 1001.3 -- 40
2021-02-01 08:00:00 17.7 8 Sudoeste 39 Oeste 0 1000.7 -- 40
2021-02-01 07:00:00 17.5 12 Sudoeste 28 Sudoeste 0 1000.2 -- 43
2021-02-01 06:00:00 17.2 7 Sudoeste -- -- 0 1000.2 -- 46
2021-02-01 05:00:00 18.9 17 Oeste 51 Noroeste 0 999.7 -- 37
2021-02-01 04:00:00 18.4 15 Oeste 36 Oeste 0 999.8 -- 44
2021-02-01 03:00:00 16.5 9 Sudoeste 36 Sudoeste 0 1000.3 -- 57
2021-02-01 02:00:00 14.9 10 Sudoeste 34 Sudoeste 0 999.9 -- 66
2021-02-01 01:00:00 15.7 15 Sudoeste 33 Sudoeste 0 1000.3 -- 63
2021-02-01 00:00:00 15.3 10 Sudoeste 31 Sudoeste 0 1000.6 -- 65
2021-01-31 23:00:00 14.2 12 Sur 36 Sudoeste 0 1000.7 -- 70
2021-01-31 22:00:00 16.7 16 Sudoeste 35 Oeste 0 1000.9 -- 57
2021-01-31 21:00:00 15.7 8 Sudoeste 19 Oeste 0 1000.9 -- 57
2021-01-31 20:00:00 14.3 6 Sur 31 Sur 0 1001 -- 65
2021-01-31 19:00:00 14.2 11 Sur 24 Sudoeste 0 1001.4 -- 62
2021-01-31 18:00:00 15.3 8 Sudoeste 36 Sudoeste 0 1001.9 -- 48
2021-01-31 17:00:00 16.1 7 Sudoeste 25 Sudoeste 0 1002 -- 45
2021-01-31 16:00:00 17.9 8 Sudoeste 30 Oeste 0 1002 -- 38
2021-01-31 15:00:00 17.4 13 Oeste 49 Oeste 0 1002 -- 39
2021-01-31 14:00:00 17.1 10 Oeste 46 Noroeste 0 1002.6 -- 41
2021-01-31 13:00:00 17.5 15 Oeste 51 Noroeste 0 1002.2 -- 39
2021-01-31 12:00:00 17.2 16 Oeste 45 Oeste 0 1002.6 -- 39
2021-01-31 11:00:00 16.6 15 Oeste 44 Oeste 0 1001.8 -- 39
2021-01-31 10:00:00 15.6 17 Oeste 48 Noroeste 0 1002.1 -- 43
2021-01-31 09:00:00 15 14 Oeste 40 Sudoeste 0 1001.2 -- 45
2021-01-31 08:00:00 14.4 17 Oeste 40 Sudoeste 0 1000.9 -- 45
2021-01-31 07:00:00 14.1 14 Sudoeste 31 Oeste 0 1001.1 -- 48
2021-01-31 06:00:00 13.6 14 Oeste 38 Oeste 0 1001.2 -- 50
2021-01-31 05:00:00 13.3 12 Sudoeste 30 Oeste 0 1001 -- 56
2021-01-31 04:00:00 13.3 12 Oeste 27 Oeste 0 1001.4 -- 56
2021-01-31 03:00:00 13.7 13 Oeste 36 Oeste 0 1001.5 -- 50
2021-01-31 02:00:00 13.7 13 Oeste 40 Noroeste 0 1001.7 -- 49
2021-01-31 01:00:00 13.9 13 Oeste 41 Oeste 0 1002.5 -- 53
2021-01-31 00:00:00 14.5 12 Oeste 39 Noroeste 0 1002.3 -- 49
2021-01-30 23:00:00 15 12 Oeste 40 Noroeste 0.2 1002.3 -- 48
2021-01-30 22:00:00 14.9 9 Oeste 27 Oeste 0 1002 -- 48
2021-01-30 21:00:00 14.7 8 Oeste 19 Oeste 0 1001.9 -- 47
2021-01-30 20:00:00 14.6 13 Sudoeste 41 Oeste 0 1001.9 -- 50
2021-01-30 19:00:00 14.8 5 Sur 25 Oeste 0 1001.7 -- 54
2021-01-30 18:00:00 16.7 14 Oeste 44 Oeste 0 1001.5 -- 46
2021-01-30 17:00:00 17.9 16 Oeste 33 Sudoeste 0 1001.2 -- 48
2021-01-30 16:00:00 18.1 15 Oeste 48 Oeste 0 1001.2 -- 57
2021-01-30 15:00:00 18 17 Sudoeste 44 Sudoeste 0 1001.3 -- 56
2021-01-30 14:00:00 18.9 18 Sudoeste 45 Oeste 0 1001.4 -- 54
2021-01-30 13:00:00 18.1 17 Sudoeste 51 Sudoeste 0 1002.7 -- 58
2021-01-30 12:00:00 18.1 26 Sudoeste 55 Sudoeste 0.2 1002.9 -- 57
2021-01-30 11:00:00 16.3 23 Sudoeste 44 Sudoeste 0 1003.7 -- 76
2021-01-30 10:00:00 13.5 17 Sudoeste 40 Sudoeste 0 1004.4 -- 91
2021-01-30 09:00:00 12.5 14 Sudoeste 30 Sur 0 1005.1 -- 94
2021-01-30 08:00:00 11.8 8 Sudoeste 28 Sudoeste 0 1005.9 -- 94
2021-01-30 07:00:00 11.2 11 Sudoeste 22 Sudoeste 0 1005.5 -- 95
2021-01-30 06:00:00 10.2 5 Sur 15 Sur 0 1006.6 -- 95
2021-01-30 05:00:00 9.8 7 Sur 17 Sur 0 1007.7 -- 94
2021-01-30 04:00:00 10.9 8 Sur 16 Sudoeste 0 1008.9 -- 93
2021-01-30 03:00:00 10.5 6 Oeste 15 Sudoeste 0 1009.7 -- 92
2021-01-30 02:00:00 10.1 3 Noroeste 11 Sudoeste 0 1010.5 -- 91
2021-01-30 01:00:00 11.2 4 Sudoeste 15 Sudoeste 0 1011.1 -- 89
2021-01-30 00:00:00 12.7 9 Sudoeste 19 Sur 0 1011.6 -- 84